sensor_id;sensor_type;location;lat;lon;timestamp;P1;durP1;ratioP1;P2;durP2;ratioP2
65096;SDS011;51686;46.758;4.356;2023-08-01T00:01:53;5.72;;;2.13;;
65096;SDS011;51686;46.758;4.356;2023-08-01T00:04:40;7.30;;;2.30;;
65096;SDS011;51686;46.758;4.356;2023-08-01T00:07:27;6.32;;;2.28;;
65096;SDS011;51686;46.758;4.356;2023-08-01T00:10:14;8.75;;;2.50;;
65096;SDS011;51686;46.758;4.356;2023-08-01T00:13:02;6.75;;;2.50;;
65096;SDS011;51686;46.758;4.356;2023-08-01T00:15:49;7.25;;;2.30;;
65096;SDS011;51686;46.758;4.356;2023-08-01T00:18:52;6.47;;;2.20;;
65096;SDS011;51686;46.758;4.356;2023-08-01T00:21:39;5.72;;;2.20;;
65096;SDS011;51686;46.758;4.356;2023-08-01T00:24:26;5.72;;;2.33;;
65096;SDS011;51686;46.758;4.356;2023-08-01T00:27:13;8.55;;;2.45;;
65096;SDS011;51686;46.758;4.356;2023-08-01T00:30:00;6.10;;;2.38;;
65096;SDS011;51686;46.758;4.356;2023-08-01T00:32:47;6.15;;;2.30;;
65096;SDS011;51686;46.758;4.356;2023-08-01T00:35:34;7.95;;;2.60;;
65096;SDS011;51686;46.758;4.356;2023-08-01T00:38:21;7.55;;;2.58;;
65096;SDS011;51686;46.758;4.356;2023-08-01T00:41:09;6.97;;;2.40;;
65096;SDS011;51686;46.758;4.356;2023-08-01T00:43:56;6.32;;;2.70;;
65096;SDS011;51686;46.758;4.356;2023-08-01T00:46:43;6.22;;;2.30;;
65096;SDS011;51686;46.758;4.356;2023-08-01T00:49:30;6.90;;;2.50;;
65096;SDS011;51686;46.758;4.356;2023-08-01T00:52:20;6.10;;;2.28;;
65096;SDS011;51686;46.758;4.356;2023-08-01T00:55:08;6.00;;;2.50;;
65096;SDS011;51686;46.758;4.356;2023-08-01T00:57:55;7.72;;;2.70;;
65096;SDS011;51686;46.758;4.356;2023-08-01T01:00:42;7.07;;;2.55;;
65096;SDS011;51686;46.758;4.356;2023-08-01T01:03:29;6.50;;;2.72;;
65096;SDS011;51686;46.758;4.356;2023-08-01T01:06:51;6.78;;;2.33;;
65096;SDS011;51686;46.758;4.356;2023-08-01T01:09:36;6.75;;;2.60;;
65096;SDS011;51686;46.758;4.356;2023-08-01T01:12:23;6.10;;;2.30;;
65096;SDS011;51686;46.758;4.356;2023-08-01T01:15:10;6.20;;;2.58;;
65096;SDS011;51686;46.758;4.356;2023-08-01T01:17:57;5.38;;;2.08;;
65096;SDS011;51686;46.758;4.356;2023-08-01T01:20:44;6.20;;;2.40;;
65096;SDS011;51686;46.758;4.356;2023-08-01T01:23:31;6.90;;;2.40;;
65096;SDS011;51686;46.758;4.356;2023-08-01T01:26:19;7.05;;;2.47;;
65096;SDS011;51686;46.758;4.356;2023-08-01T01:29:08;6.68;;;2.50;;
65096;SDS011;51686;46.758;4.356;2023-08-01T01:31:56;6.63;;;2.67;;
65096;SDS011;51686;46.758;4.356;2023-08-01T01:34:44;7.40;;;2.53;;
65096;SDS011;51686;46.758;4.356;2023-08-01T01:37:31;6.13;;;2.35;;
65096;SDS011;51686;46.758;4.356;2023-08-01T01:40:18;6.55;;;2.13;;
65096;SDS011;51686;46.758;4.356;2023-08-01T01:43:05;6.78;;;2.53;;
65096;SDS011;51686;46.758;4.356;2023-08-01T01:45:52;8.55;;;2.63;;
65096;SDS011;51686;46.758;4.356;2023-08-01T01:48:39;6.82;;;2.45;;
65096;SDS011;51686;46.758;4.356;2023-08-01T01:51:26;7.05;;;2.85;;
65096;SDS011;51686;46.758;4.356;2023-08-01T01:57:02;7.85;;;2.58;;
65096;SDS011;51686;46.758;4.356;2023-08-01T01:59:49;7.18;;;3.00;;
65096;SDS011;51686;46.758;4.356;2023-08-01T02:02:36;6.90;;;2.60;;
65096;SDS011;51686;46.758;4.356;2023-08-01T02:05:23;6.95;;;2.78;;
65096;SDS011;51686;46.758;4.356;2023-08-01T02:08:10;6.60;;;2.75;;
65096;SDS011;51686;46.758;4.356;2023-08-01T02:10:57;7.63;;;2.75;;
65096;SDS011;51686;46.758;4.356;2023-08-01T02:13:44;6.77;;;2.60;;
65096;SDS011;51686;46.758;4.356;2023-08-01T02:16:31;6.55;;;2.50;;
65096;SDS011;51686;46.758;4.356;2023-08-01T02:19:18;6.95;;;2.75;;
65096;SDS011;51686;46.758;4.356;2023-08-01T02:22:05;7.70;;;2.78;;
65096;SDS011;51686;46.758;4.356;2023-08-01T02:24:52;7.22;;;2.50;;
65096;SDS011;51686;46.758;4.356;2023-08-01T02:27:39;8.50;;;2.90;;
65096;SDS011;51686;46.758;4.356;2023-08-01T02:30:26;7.63;;;2.78;;
65096;SDS011;51686;46.758;4.356;2023-08-01T02:33:15;7.45;;;2.97;;
65096;SDS011;51686;46.758;4.356;2023-08-01T02:36:02;7.40;;;2.80;;
65096;SDS011;51686;46.758;4.356;2023-08-01T02:38:49;7.78;;;2.97;;
65096;SDS011;51686;46.758;4.356;2023-08-01T02:41:35;6.43;;;2.72;;
65096;SDS011;51686;46.758;4.356;2023-08-01T02:44:22;6.47;;;2.60;;
65096;SDS011;51686;46.758;4.356;2023-08-01T02:47:09;6.55;;;2.70;;
65096;SDS011;51686;46.758;4.356;2023-08-01T02:49:56;7.55;;;2.92;;
65096;SDS011;51686;46.758;4.356;2023-08-01T02:52:43;7.68;;;2.78;;
65096;SDS011;51686;46.758;4.356;2023-08-01T02:55:30;7.25;;;2.80;;
65096;SDS011;51686;46.758;4.356;2023-08-01T02:58:17;6.78;;;2.70;;
65096;SDS011;51686;46.758;4.356;2023-08-01T03:01:07;7.80;;;2.97;;
65096;SDS011;51686;46.758;4.356;2023-08-01T03:03:58;7.03;;;2.80;;
65096;SDS011;51686;46.758;4.356;2023-08-01T03:06:45;8.05;;;2.95;;
65096;SDS011;51686;46.758;4.356;2023-08-01T03:09:32;7.15;;;3.05;;
65096;SDS011;51686;46.758;4.356;2023-08-01T03:12:19;6.70;;;3.00;;
65096;SDS011;51686;46.758;4.356;2023-08-01T03:15:06;7.25;;;2.80;;
65096;SDS011;51686;46.758;4.356;2023-08-01T03:17:55;7.53;;;2.78;;
65096;SDS011;51686;46.758;4.356;2023-08-01T03:20:42;6.90;;;2.90;;
65096;SDS011;51686;46.758;4.356;2023-08-01T03:23:29;6.80;;;2.95;;
65096;SDS011;51686;46.758;4.356;2023-08-01T03:26:16;8.60;;;3.28;;
65096;SDS011;51686;46.758;4.356;2023-08-01T03:29:04;8.23;;;3.00;;
65096;SDS011;51686;46.758;4.356;2023-08-01T03:31:52;8.13;;;3.00;;
65096;SDS011;51686;46.758;4.356;2023-08-01T03:34:39;8.40;;;2.80;;
65096;SDS011;51686;46.758;4.356;2023-08-01T03:37:27;8.10;;;3.15;;
65096;SDS011;51686;46.758;4.356;2023-08-01T03:40:14;7.30;;;2.60;;
65096;SDS011;51686;46.758;4.356;2023-08-01T03:43:01;6.57;;;2.88;;
65096;SDS011;51686;46.758;4.356;2023-08-01T03:45:48;7.78;;;3.03;;
65096;SDS011;51686;46.758;4.356;2023-08-01T03:48:39;6.70;;;2.67;;
65096;SDS011;51686;46.758;4.356;2023-08-01T03:51:26;7.30;;;2.80;;
65096;SDS011;51686;46.758;4.356;2023-08-01T03:54:13;6.15;;;2.53;;
65096;SDS011;51686;46.758;4.356;2023-08-01T03:57:00;6.63;;;2.70;;
65096;SDS011;51686;46.758;4.356;2023-08-01T03:59:47;7.25;;;2.78;;
65096;SDS011;51686;46.758;4.356;2023-08-01T04:02:34;7.28;;;2.90;;
65096;SDS011;51686;46.758;4.356;2023-08-01T04:05:20;6.65;;;2.47;;
65096;SDS011;51686;46.758;4.356;2023-08-01T04:08:07;7.28;;;3.13;;
65096;SDS011;51686;46.758;4.356;2023-08-01T04:10:54;6.35;;;2.53;;
65096;SDS011;51686;46.758;4.356;2023-08-01T04:13:41;7.82;;;3.30;;
65096;SDS011;51686;46.758;4.356;2023-08-01T04:16:28;7.28;;;2.80;;
65096;SDS011;51686;46.758;4.356;2023-08-01T04:19:15;6.75;;;2.70;;
65096;SDS011;51686;46.758;4.356;2023-08-01T04:22:02;7.32;;;2.63;;
65096;SDS011;51686;46.758;4.356;2023-08-01T04:24:49;7.40;;;3.10;;
65096;SDS011;51686;46.758;4.356;2023-08-01T04:27:36;7.40;;;3.05;;
65096;SDS011;51686;46.758;4.356;2023-08-01T04:30:24;7.00;;;2.85;;
65096;SDS011;51686;46.758;4.356;2023-08-01T04:33:10;7.00;;;2.95;;
65096;SDS011;51686;46.758;4.356;2023-08-01T04:35:57;7.07;;;2.75;;
65096;SDS011;51686;46.758;4.356;2023-08-01T04:38:44;7.85;;;2.75;;
65096;SDS011;51686;46.758;4.356;2023-08-01T04:41:31;9.02;;;2.78;;
65096;SDS011;51686;46.758;4.356;2023-08-01T04:44:18;8.60;;;3.13;;
65096;SDS011;51686;46.758;4.356;2023-08-01T04:47:05;8.07;;;3.05;;
65096;SDS011;51686;46.758;4.356;2023-08-01T04:49:52;7.35;;;2.90;;
65096;SDS011;51686;46.758;4.356;2023-08-01T04:52:39;8.18;;;2.90;;
65096;SDS011;51686;46.758;4.356;2023-08-01T04:55:26;7.05;;;2.80;;
65096;SDS011;51686;46.758;4.356;2023-08-01T04:58:13;8.05;;;3.05;;
65096;SDS011;51686;46.758;4.356;2023-08-01T05:00:59;7.63;;;3.10;;
65096;SDS011;51686;46.758;4.356;2023-08-01T05:03:46;7.32;;;3.10;;
65096;SDS011;51686;46.758;4.356;2023-08-01T05:06:33;8.23;;;3.00;;
65096;SDS011;51686;46.758;4.356;2023-08-01T05:09:20;7.00;;;2.97;;
65096;SDS011;51686;46.758;4.356;2023-08-01T05:12:07;7.63;;;3.13;;
65096;SDS011;51686;46.758;4.356;2023-08-01T05:14:55;7.75;;;3.25;;
65096;SDS011;51686;46.758;4.356;2023-08-01T05:17:42;7.30;;;3.10;;
65096;SDS011;51686;46.758;4.356;2023-08-01T05:20:29;7.28;;;3.10;;
65096;SDS011;51686;46.758;4.356;2023-08-01T05:23:17;7.00;;;2.80;;
65096;SDS011;51686;46.758;4.356;2023-08-01T05:26:04;6.85;;;2.67;;
65096;SDS011;51686;46.758;4.356;2023-08-01T05:28:51;8.10;;;3.65;;
65096;SDS011;51686;46.758;4.356;2023-08-01T05:31:38;7.97;;;3.50;;
65096;SDS011;51686;46.758;4.356;2023-08-01T05:34:27;8.27;;;3.47;;
65096;SDS011;51686;46.758;4.356;2023-08-01T05:37:14;9.10;;;3.15;;
65096;SDS011;51686;46.758;4.356;2023-08-01T05:40:04;8.68;;;3.05;;
65096;SDS011;51686;46.758;4.356;2023-08-01T05:42:51;7.57;;;3.10;;
65096;SDS011;51686;46.758;4.356;2023-08-01T05:45:38;7.88;;;2.97;;
65096;SDS011;51686;46.758;4.356;2023-08-01T05:48:25;7.75;;;3.03;;
65096;SDS011;51686;46.758;4.356;2023-08-01T05:51:12;7.28;;;3.03;;
65096;SDS011;51686;46.758;4.356;2023-08-01T05:54:02;7.00;;;2.80;;
65096;SDS011;51686;46.758;4.356;2023-08-01T05:56:49;7.70;;;3.10;;
65096;SDS011;51686;46.758;4.356;2023-08-01T05:59:36;6.80;;;2.83;;
65096;SDS011;51686;46.758;4.356;2023-08-01T06:02:23;6.60;;;2.80;;
65096;SDS011;51686;46.758;4.356;2023-08-01T06:05:10;6.47;;;2.63;;
65096;SDS011;51686;46.758;4.356;2023-08-01T06:07:57;8.18;;;3.10;;
65096;SDS011;51686;46.758;4.356;2023-08-01T06:10:44;8.13;;;3.05;;
65096;SDS011;51686;46.758;4.356;2023-08-01T06:13:30;7.78;;;3.03;;
65096;SDS011;51686;46.758;4.356;2023-08-01T06:16:17;7.10;;;3.00;;
65096;SDS011;51686;46.758;4.356;2023-08-01T06:19:04;7.43;;;2.83;;
65096;SDS011;51686;46.758;4.356;2023-08-01T06:21:51;6.97;;;2.80;;
65096;SDS011;51686;46.758;4.356;2023-08-01T06:24:38;6.55;;;2.80;;
65096;SDS011;51686;46.758;4.356;2023-08-01T06:27:25;7.00;;;2.75;;
65096;SDS011;51686;46.758;4.356;2023-08-01T06:30:12;6.63;;;2.60;;
65096;SDS011;51686;46.758;4.356;2023-08-01T06:32:59;6.95;;;2.55;;
65096;SDS011;51686;46.758;4.356;2023-08-01T06:35:46;7.75;;;3.15;;
65096;SDS011;51686;46.758;4.356;2023-08-01T06:38:33;7.03;;;2.95;;
65096;SDS011;51686;46.758;4.356;2023-08-01T06:41:20;7.38;;;3.20;;
65096;SDS011;51686;46.758;4.356;2023-08-01T06:44:07;9.02;;;3.15;;
65096;SDS011;51686;46.758;4.356;2023-08-01T06:46:54;7.30;;;3.00;;
65096;SDS011;51686;46.758;4.356;2023-08-01T06:49:41;7.95;;;3.30;;
65096;SDS011;51686;46.758;4.356;2023-08-01T06:52:28;6.97;;;2.88;;
65096;SDS011;51686;46.758;4.356;2023-08-01T06:55:14;8.00;;;3.08;;
65096;SDS011;51686;46.758;4.356;2023-08-01T06:58:01;8.07;;;3.13;;
65096;SDS011;51686;46.758;4.356;2023-08-01T07:00:48;8.45;;;3.45;;
65096;SDS011;51686;46.758;4.356;2023-08-01T07:03:35;8.07;;;3.05;;
65096;SDS011;51686;46.758;4.356;2023-08-01T07:06:22;8.18;;;3.10;;
65096;SDS011;51686;46.758;4.356;2023-08-01T07:09:10;7.78;;;3.20;;
65096;SDS011;51686;46.758;4.356;2023-08-01T07:11:57;6.72;;;2.88;;
65096;SDS011;51686;46.758;4.356;2023-08-01T07:14:43;7.85;;;3.03;;
65096;SDS011;51686;46.758;4.356;2023-08-01T07:17:30;8.10;;;3.00;;
65096;SDS011;51686;46.758;4.356;2023-08-01T07:20:17;8.05;;;3.20;;
65096;SDS011;51686;46.758;4.356;2023-08-01T07:23:05;8.00;;;3.17;;
65096;SDS011;51686;46.758;4.356;2023-08-01T07:25:52;7.55;;;3.00;;
65096;SDS011;51686;46.758;4.356;2023-08-01T07:28:39;7.30;;;3.28;;
65096;SDS011;51686;46.758;4.356;2023-08-01T07:31:26;7.72;;;3.13;;
65096;SDS011;51686;46.758;4.356;2023-08-01T07:34:13;7.78;;;2.97;;
65096;SDS011;51686;46.758;4.356;2023-08-01T07:37:00;7.38;;;2.75;;
65096;SDS011;51686;46.758;4.356;2023-08-01T07:39:47;7.68;;;3.35;;
65096;SDS011;51686;46.758;4.356;2023-08-01T07:42:34;7.40;;;3.13;;
65096;SDS011;51686;46.758;4.356;2023-08-01T07:45:20;7.72;;;3.10;;
65096;SDS011;51686;46.758;4.356;2023-08-01T07:48:08;8.27;;;3.33;;
65096;SDS011;51686;46.758;4.356;2023-08-01T07:50:55;8.15;;;3.20;;
65096;SDS011;51686;46.758;4.356;2023-08-01T07:53:42;7.00;;;3.03;;
65096;SDS011;51686;46.758;4.356;2023-08-01T07:56:29;7.70;;;2.90;;
65096;SDS011;51686;46.758;4.356;2023-08-01T07:59:16;7.82;;;2.90;;
65096;SDS011;51686;46.758;4.356;2023-08-01T08:02:03;7.70;;;2.95;;
65096;SDS011;51686;46.758;4.356;2023-08-01T08:04:50;7.63;;;3.00;;
65096;SDS011;51686;46.758;4.356;2023-08-01T08:07:37;7.50;;;2.90;;
65096;SDS011;51686;46.758;4.356;2023-08-01T08:10:24;7.97;;;2.67;;
65096;SDS011;51686;46.758;4.356;2023-08-01T08:13:10;8.82;;;3.22;;
65096;SDS011;51686;46.758;4.356;2023-08-01T08:15:57;7.88;;;2.95;;
65096;SDS011;51686;46.758;4.356;2023-08-01T08:18:45;7.10;;;2.90;;
65096;SDS011;51686;46.758;4.356;2023-08-01T08:21:32;7.50;;;2.85;;
65096;SDS011;51686;46.758;4.356;2023-08-01T08:24:19;7.93;;;3.20;;
65096;SDS011;51686;46.758;4.356;2023-08-01T08:27:06;8.20;;;3.05;;
65096;SDS011;51686;46.758;4.356;2023-08-01T08:29:53;7.53;;;3.00;;
65096;SDS011;51686;46.758;4.356;2023-08-01T08:32:40;8.68;;;3.33;;
65096;SDS011;51686;46.758;4.356;2023-08-01T08:35:26;7.78;;;3.10;;
65096;SDS011;51686;46.758;4.356;2023-08-01T08:38:13;7.40;;;3.03;;
65096;SDS011;51686;46.758;4.356;2023-08-01T08:44:07;7.85;;;3.03;;
65096;SDS011;51686;46.758;4.356;2023-08-01T08:46:55;7.90;;;2.85;;
65096;SDS011;51686;46.758;4.356;2023-08-01T08:49:46;7.88;;;3.13;;
65096;SDS011;51686;46.758;4.356;2023-08-01T08:52:33;7.25;;;3.03;;
65096;SDS011;51686;46.758;4.356;2023-08-01T08:55:20;7.70;;;3.25;;
65096;SDS011;51686;46.758;4.356;2023-08-01T08:58:08;8.32;;;3.40;;
65096;SDS011;51686;46.758;4.356;2023-08-01T09:00:55;8.43;;;3.33;;
65096;SDS011;51686;46.758;4.356;2023-08-01T09:03:44;8.07;;;3.17;;
65096;SDS011;51686;46.758;4.356;2023-08-01T09:06:49;9.23;;;3.17;;
65096;SDS011;51686;46.758;4.356;2023-08-01T09:09:38;7.25;;;3.22;;
65096;SDS011;51686;46.758;4.356;2023-08-01T09:12:25;7.47;;;3.03;;
65096;SDS011;51686;46.758;4.356;2023-08-01T09:15:12;8.30;;;3.30;;
65096;SDS011;51686;46.758;4.356;2023-08-01T09:18:00;7.75;;;3.05;;
65096;SDS011;51686;46.758;4.356;2023-08-01T09:20:48;8.27;;;3.30;;
65096;SDS011;51686;46.758;4.356;2023-08-01T09:23:35;8.23;;;3.40;;
65096;SDS011;51686;46.758;4.356;2023-08-01T09:26:22;7.97;;;3.20;;
65096;SDS011;51686;46.758;4.356;2023-08-01T09:29:09;7.72;;;3.05;;
65096;SDS011;51686;46.758;4.356;2023-08-01T09:31:56;7.65;;;3.17;;
65096;SDS011;51686;46.758;4.356;2023-08-01T09:34:43;7.60;;;3.10;;
65096;SDS011;51686;46.758;4.356;2023-08-01T09:37:40;8.00;;;3.17;;
65096;SDS011;51686;46.758;4.356;2023-08-01T09:40:35;7.35;;;3.03;;
65096;SDS011;51686;46.758;4.356;2023-08-01T09:43:25;7.80;;;3.00;;
65096;SDS011;51686;46.758;4.356;2023-08-01T09:46:20;8.38;;;3.22;;
65096;SDS011;51686;46.758;4.356;2023-08-01T09:49:07;8.43;;;3.00;;
65096;SDS011;51686;46.758;4.356;2023-08-01T09:51:56;7.07;;;2.92;;
65096;SDS011;51686;46.758;4.356;2023-08-01T09:54:44;7.88;;;3.03;;
65096;SDS011;51686;46.758;4.356;2023-08-01T09:57:31;8.32;;;3.20;;
65096;SDS011;51686;46.758;4.356;2023-08-01T10:00:18;7.60;;;2.80;;
65096;SDS011;51686;46.758;4.356;2023-08-01T10:03:05;8.20;;;3.15;;
65096;SDS011;51686;46.758;4.356;2023-08-01T10:05:52;7.28;;;3.03;;
65096;SDS011;51686;46.758;4.356;2023-08-01T10:11:28;6.85;;;2.85;;
65096;SDS011;51686;46.758;4.356;2023-08-01T10:14:17;7.95;;;3.38;;
65096;SDS011;51686;46.758;4.356;2023-08-01T10:19:52;8.27;;;3.33;;
65096;SDS011;51686;46.758;4.356;2023-08-01T10:22:40;8.00;;;2.92;;
65096;SDS011;51686;46.758;4.356;2023-08-01T10:25:28;7.70;;;3.10;;
65096;SDS011;51686;46.758;4.356;2023-08-01T10:28:16;7.28;;;2.90;;
65096;SDS011;51686;46.758;4.356;2023-08-01T10:31:07;9.48;;;3.83;;
65096;SDS011;51686;46.758;4.356;2023-08-01T10:34:07;8.48;;;3.00;;
65096;SDS011;51686;46.758;4.356;2023-08-01T10:37:01;7.60;;;3.08;;
65096;SDS011;51686;46.758;4.356;2023-08-01T10:39:55;7.95;;;3.10;;
65096;SDS011;51686;46.758;4.356;2023-08-01T10:42:44;7.10;;;3.20;;
65096;SDS011;51686;46.758;4.356;2023-08-01T10:45:31;7.80;;;3.20;;
65096;SDS011;51686;46.758;4.356;2023-08-01T10:48:18;7.95;;;3.10;;
65096;SDS011;51686;46.758;4.356;2023-08-01T10:51:05;7.53;;;3.05;;
65096;SDS011;51686;46.758;4.356;2023-08-01T10:53:52;7.55;;;3.13;;
65096;SDS011;51686;46.758;4.356;2023-08-01T10:56:39;7.78;;;3.28;;
65096;SDS011;51686;46.758;4.356;2023-08-01T10:59:31;7.65;;;3.05;;
65096;SDS011;51686;46.758;4.356;2023-08-01T11:02:20;7.72;;;2.90;;
65096;SDS011;51686;46.758;4.356;2023-08-01T11:07:55;7.60;;;2.88;;
65096;SDS011;51686;46.758;4.356;2023-08-01T11:10:48;7.73;;;3.40;;
65096;SDS011;51686;46.758;4.356;2023-08-01T11:13:36;8.02;;;3.30;;
65096;SDS011;51686;46.758;4.356;2023-08-01T11:16:23;7.80;;;3.00;;
65096;SDS011;51686;46.758;4.356;2023-08-01T11:22:11;7.13;;;3.03;;
65096;SDS011;51686;46.758;4.356;2023-08-01T11:24:58;8.05;;;3.10;;
65096;SDS011;51686;46.758;4.356;2023-08-01T11:27:45;8.23;;;3.28;;
65096;SDS011;51686;46.758;4.356;2023-08-01T11:30:32;7.93;;;3.15;;
65096;SDS011;51686;46.758;4.356;2023-08-01T11:33:20;8.75;;;3.45;;
65096;SDS011;51686;46.758;4.356;2023-08-01T11:36:08;8.57;;;3.30;;
65096;SDS011;51686;46.758;4.356;2023-08-01T11:38:57;8.02;;;2.80;;
65096;SDS011;51686;46.758;4.356;2023-08-01T11:41:44;8.32;;;3.28;;
65096;SDS011;51686;46.758;4.356;2023-08-01T11:44:31;7.93;;;3.50;;
65096;SDS011;51686;46.758;4.356;2023-08-01T11:47:18;7.85;;;3.28;;
65096;SDS011;51686;46.758;4.356;2023-08-01T11:50:05;7.78;;;2.95;;
65096;SDS011;51686;46.758;4.356;2023-08-01T11:52:53;6.95;;;2.80;;
65096;SDS011;51686;46.758;4.356;2023-08-01T11:55:40;8.70;;;2.92;;
65096;SDS011;51686;46.758;4.356;2023-08-01T11:58:39;8.52;;;3.00;;
65096;SDS011;51686;46.758;4.356;2023-08-01T12:01:27;7.38;;;3.03;;
65096;SDS011;51686;46.758;4.356;2023-08-01T12:04:25;7.28;;;2.78;;
65096;SDS011;51686;46.758;4.356;2023-08-01T12:07:15;6.03;;;2.58;;
65096;SDS011;51686;46.758;4.356;2023-08-01T12:10:03;8.23;;;3.00;;
65096;SDS011;51686;46.758;4.356;2023-08-01T12:12:50;7.05;;;3.03;;
65096;SDS011;51686;46.758;4.356;2023-08-01T12:15:37;7.93;;;3.00;;
65096;SDS011;51686;46.758;4.356;2023-08-01T12:18:24;8.40;;;3.45;;
65096;SDS011;51686;46.758;4.356;2023-08-01T12:21:15;7.60;;;3.00;;
65096;SDS011;51686;46.758;4.356;2023-08-01T12:24:02;7.13;;;2.80;;
65096;SDS011;51686;46.758;4.356;2023-08-01T12:26:50;6.88;;;2.83;;
65096;SDS011;51686;46.758;4.356;2023-08-01T12:29:37;7.35;;;3.00;;
65096;SDS011;51686;46.758;4.356;2023-08-01T12:32:24;7.60;;;2.92;;
65096;SDS011;51686;46.758;4.356;2023-08-01T12:35:11;7.30;;;2.80;;
65096;SDS011;51686;46.758;4.356;2023-08-01T12:37:58;7.00;;;2.70;;
65096;SDS011;51686;46.758;4.356;2023-08-01T12:40:45;7.32;;;2.70;;
65096;SDS011;51686;46.758;4.356;2023-08-01T12:43:33;6.72;;;2.70;;
65096;SDS011;51686;46.758;4.356;2023-08-01T12:46:20;7.43;;;3.00;;
65096;SDS011;51686;46.758;4.356;2023-08-01T12:49:07;6.38;;;2.60;;
65096;SDS011;51686;46.758;4.356;2023-08-01T12:51:54;6.28;;;2.42;;
65096;SDS011;51686;46.758;4.356;2023-08-01T12:54:41;6.95;;;2.60;;
65096;SDS011;51686;46.758;4.356;2023-08-01T12:57:28;6.57;;;2.67;;
65096;SDS011;51686;46.758;4.356;2023-08-01T13:00:17;6.65;;;2.67;;
65096;SDS011;51686;46.758;4.356;2023-08-01T13:03:04;7.18;;;2.50;;
65096;SDS011;51686;46.758;4.356;2023-08-01T13:05:51;6.72;;;2.72;;
65096;SDS011;51686;46.758;4.356;2023-08-01T13:08:39;7.07;;;2.58;;
65096;SDS011;51686;46.758;4.356;2023-08-01T13:11:26;7.68;;;2.58;;
65096;SDS011;51686;46.758;4.356;2023-08-01T13:14:13;5.45;;;2.25;;
65096;SDS011;51686;46.758;4.356;2023-08-01T13:17:00;5.60;;;2.15;;
65096;SDS011;51686;46.758;4.356;2023-08-01T13:19:47;5.97;;;2.13;;
65096;SDS011;51686;46.758;4.356;2023-08-01T13:22:34;6.47;;;2.30;;
65096;SDS011;51686;46.758;4.356;2023-08-01T13:25:21;5.40;;;2.13;;
65096;SDS011;51686;46.758;4.356;2023-08-01T13:28:08;5.38;;;2.10;;
65096;SDS011;51686;46.758;4.356;2023-08-01T13:30:54;6.15;;;2.22;;
65096;SDS011;51686;46.758;4.356;2023-08-01T13:33:41;5.60;;;2.03;;
65096;SDS011;51686;46.758;4.356;2023-08-01T13:36:28;4.45;;;1.80;;
65096;SDS011;51686;46.758;4.356;2023-08-01T13:39:15;5.95;;;2.10;;
65096;SDS011;51686;46.758;4.356;2023-08-01T13:42:02;4.78;;;1.80;;
65096;SDS011;51686;46.758;4.356;2023-08-01T13:44:49;5.95;;;2.03;;
65096;SDS011;51686;46.758;4.356;2023-08-01T13:47:36;5.82;;;1.83;;
65096;SDS011;51686;46.758;4.356;2023-08-01T13:50:24;6.20;;;1.98;;
65096;SDS011;51686;46.758;4.356;2023-08-01T13:53:12;4.47;;;1.88;;
65096;SDS011;51686;46.758;4.356;2023-08-01T13:56:00;4.43;;;1.77;;
65096;SDS011;51686;46.758;4.356;2023-08-01T13:58:47;4.05;;;1.63;;
65096;SDS011;51686;46.758;4.356;2023-08-01T14:01:34;4.18;;;1.60;;
65096;SDS011;51686;46.758;4.356;2023-08-01T14:04:22;4.55;;;1.77;;
65096;SDS011;51686;46.758;4.356;2023-08-01T14:07:09;4.85;;;1.80;;
65096;SDS011;51686;46.758;4.356;2023-08-01T14:09:56;4.55;;;1.85;;
65096;SDS011;51686;46.758;4.356;2023-08-01T14:12:43;4.35;;;1.83;;
65096;SDS011;51686;46.758;4.356;2023-08-01T14:15:30;4.43;;;1.77;;
65096;SDS011;51686;46.758;4.356;2023-08-01T14:18:17;4.35;;;1.70;;
65096;SDS011;51686;46.758;4.356;2023-08-01T14:21:07;4.13;;;1.55;;
65096;SDS011;51686;46.758;4.356;2023-08-01T14:23:54;3.28;;;1.50;;
65096;SDS011;51686;46.758;4.356;2023-08-01T14:26:41;3.65;;;1.40;;
65096;SDS011;51686;46.758;4.356;2023-08-01T14:29:28;3.63;;;1.48;;
65096;SDS011;51686;46.758;4.356;2023-08-01T14:32:17;4.10;;;1.50;;
65096;SDS011;51686;46.758;4.356;2023-08-01T14:35:04;3.88;;;1.42;;
65096;SDS011;51686;46.758;4.356;2023-08-01T14:37:52;4.70;;;1.67;;
65096;SDS011;51686;46.758;4.356;2023-08-01T14:40:39;4.70;;;1.58;;
65096;SDS011;51686;46.758;4.356;2023-08-01T14:43:31;4.80;;;1.70;;
65096;SDS011;51686;46.758;4.356;2023-08-01T14:46:17;3.17;;;1.33;;
65096;SDS011;51686;46.758;4.356;2023-08-01T14:49:04;3.72;;;1.60;;
65096;SDS011;51686;46.758;4.356;2023-08-01T14:51:51;4.32;;;1.55;;
65096;SDS011;51686;46.758;4.356;2023-08-01T14:54:38;4.10;;;1.50;;
65096;SDS011;51686;46.758;4.356;2023-08-01T14:57:27;3.60;;;1.40;;
65096;SDS011;51686;46.758;4.356;2023-08-01T15:00:15;3.58;;;1.60;;
65096;SDS011;51686;46.758;4.356;2023-08-01T15:03:02;4.60;;;1.77;;
65096;SDS011;51686;46.758;4.356;2023-08-01T15:05:50;4.38;;;1.60;;
65096;SDS011;51686;46.758;4.356;2023-08-01T15:08:37;3.15;;;1.40;;
65096;SDS011;51686;46.758;4.356;2023-08-01T15:11:24;3.92;;;1.52;;
65096;SDS011;51686;46.758;4.356;2023-08-01T15:14:11;3.80;;;1.30;;
65096;SDS011;51686;46.758;4.356;2023-08-01T15:16:58;4.25;;;1.45;;
65096;SDS011;51686;46.758;4.356;2023-08-01T15:19:45;1.88;;;1.15;;
65096;SDS011;51686;46.758;4.356;2023-08-01T15:22:33;4.60;;;1.70;;
65096;SDS011;51686;46.758;4.356;2023-08-01T15:25:20;3.28;;;1.40;;
65096;SDS011;51686;46.758;4.356;2023-08-01T15:28:07;4.85;;;1.65;;
65096;SDS011;51686;46.758;4.356;2023-08-01T15:31:07;3.10;;;1.40;;
65096;SDS011;51686;46.758;4.356;2023-08-01T15:33:55;3.47;;;1.27;;
65096;SDS011;51686;46.758;4.356;2023-08-01T15:36:42;2.47;;;1.20;;
65096;SDS011;51686;46.758;4.356;2023-08-01T15:39:33;2.83;;;1.40;;
65096;SDS011;51686;46.758;4.356;2023-08-01T15:42:20;3.25;;;1.30;;
65096;SDS011;51686;46.758;4.356;2023-08-01T15:45:07;3.45;;;1.27;;
65096;SDS011;51686;46.758;4.356;2023-08-01T15:47:54;2.38;;;1.15;;
65096;SDS011;51686;46.758;4.356;2023-08-01T15:50:41;2.85;;;1.27;;
65096;SDS011;51686;46.758;4.356;2023-08-01T15:53:28;2.33;;;1.27;;
65096;SDS011;51686;46.758;4.356;2023-08-01T15:56:15;2.15;;;1.15;;
65096;SDS011;51686;46.758;4.356;2023-08-01T15:59:02;2.25;;;1.10;;
65096;SDS011;51686;46.758;4.356;2023-08-01T16:01:50;2.38;;;1.00;;
65096;SDS011;51686;46.758;4.356;2023-08-01T16:04:36;2.45;;;1.20;;
65096;SDS011;51686;46.758;4.356;2023-08-01T16:07:23;1.88;;;1.02;;
65096;SDS011;51686;46.758;4.356;2023-08-01T16:10:10;2.08;;;1.00;;
65096;SDS011;51686;46.758;4.356;2023-08-01T16:12:57;2.40;;;1.20;;
65096;SDS011;51686;46.758;4.356;2023-08-01T16:15:44;1.38;;;0.90;;
65096;SDS011;51686;46.758;4.356;2023-08-01T16:18:31;2.65;;;1.08;;
65096;SDS011;51686;46.758;4.356;2023-08-01T16:21:18;1.95;;;1.10;;
65096;SDS011;51686;46.758;4.356;2023-08-01T16:24:05;1.58;;;0.95;;
65096;SDS011;51686;46.758;4.356;2023-08-01T16:26:52;1.77;;;0.98;;
65096;SDS011;51686;46.758;4.356;2023-08-01T16:29:39;1.83;;;0.95;;
65096;SDS011;51686;46.758;4.356;2023-08-01T16:32:26;1.95;;;0.95;;
65096;SDS011;51686;46.758;4.356;2023-08-01T16:35:13;2.00;;;1.00;;
65096;SDS011;51686;46.758;4.356;2023-08-01T16:38:00;2.92;;;0.90;;
65096;SDS011;51686;46.758;4.356;2023-08-01T16:40:47;1.98;;;0.90;;
65096;SDS011;51686;46.758;4.356;2023-08-01T16:43:34;2.50;;;1.17;;
65096;SDS011;51686;46.758;4.356;2023-08-01T16:46:21;1.35;;;0.85;;
65096;SDS011;51686;46.758;4.356;2023-08-01T16:49:08;2.00;;;1.00;;
65096;SDS011;51686;46.758;4.356;2023-08-01T16:52:08;2.35;;;1.00;;
65096;SDS011;51686;46.758;4.356;2023-08-01T16:54:54;2.20;;;1.20;;
65096;SDS011;51686;46.758;4.356;2023-08-01T16:57:42;1.67;;;0.95;;
65096;SDS011;51686;46.758;4.356;2023-08-01T17:00:29;2.03;;;0.88;;
65096;SDS011;51686;46.758;4.356;2023-08-01T17:03:17;2.05;;;0.98;;
65096;SDS011;51686;46.758;4.356;2023-08-01T17:06:04;1.50;;;1.00;;
65096;SDS011;51686;46.758;4.356;2023-08-01T17:08:51;1.35;;;0.88;;